sensor_id;sensor_type;location;lat;lon;timestamp;temperature;humidity
23873;DHT22;42884;50.718;4.630;2023-02-28T00:00:04;0.00;99.90
23873;DHT22;42884;50.718;4.630;2023-02-28T00:02:36;0.00;99.90
23873;DHT22;42884;50.718;4.630;2023-02-28T00:05:02;0.00;99.90
23873;DHT22;42884;50.718;4.630;2023-02-28T00:07:29;-0.10;99.90
23873;DHT22;42884;50.718;4.630;2023-02-28T00:09:55;-0.10;99.90
23873;DHT22;42884;50.718;4.630;2023-02-28T00:12:20;-0.20;99.90
23873;DHT22;42884;50.718;4.630;2023-02-28T00:14:46;-0.20;99.90
23873;DHT22;42884;50.718;4.630;2023-02-28T00:17:11;-0.20;99.90
23873;DHT22;42884;50.718;4.630;2023-02-28T00:19:37;-0.20;99.90
23873;DHT22;42884;50.718;4.630;2023-02-28T00:22:03;-0.20;99.90
23873;DHT22;42884;50.718;4.630;2023-02-28T00:24:28;-0.20;99.90
23873;DHT22;42884;50.718;4.630;2023-02-28T00:26:54;-0.20;99.90
23873;DHT22;42884;50.718;4.630;2023-02-28T00:29:19;-0.30;99.90
23873;DHT22;42884;50.718;4.630;2023-02-28T00:31:45;-0.40;99.90
23873;DHT22;42884;50.718;4.630;2023-02-28T00:34:11;-0.40;99.90
23873;DHT22;42884;50.718;4.630;2023-02-28T00:36:36;-0.40;99.90
23873;DHT22;42884;50.718;4.630;2023-02-28T00:39:02;-0.50;99.90
23873;DHT22;42884;50.718;4.630;2023-02-28T00:41:27;-0.40;99.90
23873;DHT22;42884;50.718;4.630;2023-02-28T00:43:53;-0.50;99.90
23873;DHT22;42884;50.718;4.630;2023-02-28T00:46:19;-0.40;99.90
23873;DHT22;42884;50.718;4.630;2023-02-28T00:48:44;-0.40;99.90
23873;DHT22;42884;50.718;4.630;2023-02-28T00:51:10;-0.50;99.90
23873;DHT22;42884;50.718;4.630;2023-02-28T00:53:35;-0.50;99.90
23873;DHT22;42884;50.718;4.630;2023-02-28T00:56:01;-0.60;99.90
23873;DHT22;42884;50.718;4.630;2023-02-28T00:58:27;-0.50;99.90
23873;DHT22;42884;50.718;4.630;2023-02-28T01:00:52;-0.60;99.90
23873;DHT22;42884;50.718;4.630;2023-02-28T01:03:19;-0.70;99.90
23873;DHT22;42884;50.718;4.630;2023-02-28T01:05:45;-0.70;99.90
23873;DHT22;42884;50.718;4.630;2023-02-28T01:08:11;-0.60;99.90
23873;DHT22;42884;50.718;4.630;2023-02-28T01:10:36;-0.60;99.90
23873;DHT22;42884;50.718;4.630;2023-02-28T01:13:03;-0.60;99.90
23873;DHT22;42884;50.718;4.630;2023-02-28T01:15:29;-0.60;99.90
23873;DHT22;42884;50.718;4.630;2023-02-28T01:17:54;-0.70;99.90
23873;DHT22;42884;50.718;4.630;2023-02-28T01:20:20;-0.70;99.90
23873;DHT22;42884;50.718;4.630;2023-02-28T01:22:46;-0.70;99.90
23873;DHT22;42884;50.718;4.630;2023-02-28T01:25:12;-0.70;99.90
23873;DHT22;42884;50.718;4.630;2023-02-28T01:27:37;-0.70;99.90
23873;DHT22;42884;50.718;4.630;2023-02-28T01:30:05;-0.70;99.90
23873;DHT22;42884;50.718;4.630;2023-02-28T01:32:31;-0.70;99.90
23873;DHT22;42884;50.718;4.630;2023-02-28T01:34:56;-0.70;99.90
23873;DHT22;42884;50.718;4.630;2023-02-28T01:37:22;-0.90;99.90
23873;DHT22;42884;50.718;4.630;2023-02-28T01:39:47;-0.80;99.90
23873;DHT22;42884;50.718;4.630;2023-02-28T01:42:13;-0.90;99.90
23873;DHT22;42884;50.718;4.630;2023-02-28T01:47:25;-0.90;99.90
23873;DHT22;42884;50.718;4.630;2023-02-28T01:49:51;-0.90;99.90
23873;DHT22;42884;50.718;4.630;2023-02-28T01:52:17;-0.90;99.90
23873;DHT22;42884;50.718;4.630;2023-02-28T01:54:48;-1.00;99.90
23873;DHT22;42884;50.718;4.630;2023-02-28T01:57:16;-1.00;99.90
23873;DHT22;42884;50.718;4.630;2023-02-28T01:59:45;-0.90;99.90
23873;DHT22;42884;50.718;4.630;2023-02-28T02:02:16;-0.90;99.90
23873;DHT22;42884;50.718;4.630;2023-02-28T02:04:50;-0.90;99.90
23873;DHT22;42884;50.718;4.630;2023-02-28T02:07:16;-1.00;99.90
23873;DHT22;42884;50.718;4.630;2023-02-28T02:09:41;-1.00;99.90
23873;DHT22;42884;50.718;4.630;2023-02-28T02:12:18;-1.00;99.90
23873;DHT22;42884;50.718;4.630;2023-02-28T02:14:58;-1.00;99.90
23873;DHT22;42884;50.718;4.630;2023-02-28T02:17:39;-0.90;99.90
23873;DHT22;42884;50.718;4.630;2023-02-28T02:33:22;-1.00;99.90
23873;DHT22;42884;50.718;4.630;2023-02-28T02:38:12;-1.10;99.90
23873;DHT22;42884;50.718;4.630;2023-02-28T02:40:58;-1.10;99.90
23873;DHT22;42884;50.718;4.630;2023-02-28T02:43:38;-1.10;99.90
23873;DHT22;42884;50.718;4.630;2023-02-28T02:46:07;-1.10;99.90
23873;DHT22;42884;50.718;4.630;2023-02-28T02:48:35;-1.10;99.90
23873;DHT22;42884;50.718;4.630;2023-02-28T02:51:03;-1.20;99.90
23873;DHT22;42884;50.718;4.630;2023-02-28T02:53:38;-1.20;99.90
23873;DHT22;42884;50.718;4.630;2023-02-28T02:56:06;-1.20;99.90
23873;DHT22;42884;50.718;4.630;2023-02-28T02:58:33;-1.20;99.90
23873;DHT22;42884;50.718;4.630;2023-02-28T03:01:01;-1.20;99.90
23873;DHT22;42884;50.718;4.630;2023-02-28T03:03:27;-1.20;99.90
23873;DHT22;42884;50.718;4.630;2023-02-28T03:05:57;-1.30;99.90
23873;DHT22;42884;50.718;4.630;2023-02-28T03:08:23;-1.30;99.90
23873;DHT22;42884;50.718;4.630;2023-02-28T03:10:50;-1.40;99.90
23873;DHT22;42884;50.718;4.630;2023-02-28T03:16:17;-1.40;99.90
23873;DHT22;42884;50.718;4.630;2023-02-28T03:24:17;-1.50;99.90
23873;DHT22;42884;50.718;4.630;2023-02-28T03:26:45;-1.50;99.90
23873;DHT22;42884;50.718;4.630;2023-02-28T03:31:51;-1.60;99.90
23873;DHT22;42884;50.718;4.630;2023-02-28T03:36:51;-1.50;99.90
23873;DHT22;42884;50.718;4.630;2023-02-28T03:40:05;-1.60;99.90
23873;DHT22;42884;50.718;4.630;2023-02-28T03:42:06;-1.60;99.90
23873;DHT22;42884;50.718;4.630;2023-02-28T03:47:08;-1.60;99.90
23873;DHT22;42884;50.718;4.630;2023-02-28T03:49:36;-1.60;99.90
23873;DHT22;42884;50.718;4.630;2023-02-28T03:52:03;-1.70;99.90
23873;DHT22;42884;50.718;4.630;2023-02-28T03:54:32;-1.70;99.90
23873;DHT22;42884;50.718;4.630;2023-02-28T03:56:59;-1.70;99.90
23873;DHT22;42884;50.718;4.630;2023-02-28T03:59:32;-1.70;99.90
23873;DHT22;42884;50.718;4.630;2023-02-28T04:01:59;-1.70;99.90
23873;DHT22;42884;50.718;4.630;2023-02-28T04:04:25;-1.80;99.90
23873;DHT22;42884;50.718;4.630;2023-02-28T04:06:51;-1.80;99.90
23873;DHT22;42884;50.718;4.630;2023-02-28T04:09:17;-1.80;99.90
23873;DHT22;42884;50.718;4.630;2023-02-28T04:11:45;-1.80;99.90
23873;DHT22;42884;50.718;4.630;2023-02-28T04:14:14;-1.80;99.90
23873;DHT22;42884;50.718;4.630;2023-02-28T04:16:40;-1.80;99.90
23873;DHT22;42884;50.718;4.630;2023-02-28T04:19:07;-1.80;99.90
23873;DHT22;42884;50.718;4.630;2023-02-28T04:21:36;-1.90;99.90
23873;DHT22;42884;50.718;4.630;2023-02-28T04:24:04;-1.90;99.90
23873;DHT22;42884;50.718;4.630;2023-02-28T04:26:30;-1.80;99.90
23873;DHT22;42884;50.718;4.630;2023-02-28T04:28:56;-1.80;99.90
23873;DHT22;42884;50.718;4.630;2023-02-28T04:31:22;-1.80;99.90
23873;DHT22;42884;50.718;4.630;2023-02-28T04:33:47;-1.70;99.90
23873;DHT22;42884;50.718;4.630;2023-02-28T04:36:13;-1.70;99.90
23873;DHT22;42884;50.718;4.630;2023-02-28T04:38:39;-1.70;99.90
23873;DHT22;42884;50.718;4.630;2023-02-28T04:41:05;-1.60;99.90
23873;DHT22;42884;50.718;4.630;2023-02-28T04:43:31;-1.60;99.90
23873;DHT22;42884;50.718;4.630;2023-02-28T04:45:57;-1.60;99.90
23873;DHT22;42884;50.718;4.630;2023-02-28T04:48:23;-1.50;99.90
23873;DHT22;42884;50.718;4.630;2023-02-28T04:50:51;-1.50;99.90
23873;DHT22;42884;50.718;4.630;2023-02-28T04:53:16;-1.60;99.90
23873;DHT22;42884;50.718;4.630;2023-02-28T04:55:42;-1.60;99.90
23873;DHT22;42884;50.718;4.630;2023-02-28T04:58:08;-1.50;99.90
23873;DHT22;42884;50.718;4.630;2023-02-28T05:00:33;-1.50;99.90
23873;DHT22;42884;50.718;4.630;2023-02-28T05:02:59;-1.50;99.90
23873;DHT22;42884;50.718;4.630;2023-02-28T05:05:25;-1.50;99.90
23873;DHT22;42884;50.718;4.630;2023-02-28T05:07:50;-1.60;99.90
23873;DHT22;42884;50.718;4.630;2023-02-28T05:10:16;-1.60;99.90
23873;DHT22;42884;50.718;4.630;2023-02-28T05:12:41;-1.60;99.90
23873;DHT22;42884;50.718;4.630;2023-02-28T05:15:08;-1.60;99.90
23873;DHT22;42884;50.718;4.630;2023-02-28T05:17:37;-1.60;99.90
23873;DHT22;42884;50.718;4.630;2023-02-28T05:20:03;-1.60;99.90
23873;DHT22;42884;50.718;4.630;2023-02-28T05:22:30;-1.70;99.90
23873;DHT22;42884;50.718;4.630;2023-02-28T05:24:55;-1.70;99.90
23873;DHT22;42884;50.718;4.630;2023-02-28T05:27:21;-1.60;99.90
23873;DHT22;42884;50.718;4.630;2023-02-28T05:29:47;-1.60;99.90
23873;DHT22;42884;50.718;4.630;2023-02-28T05:32:12;-1.60;99.90
23873;DHT22;42884;50.718;4.630;2023-02-28T05:34:39;-1.60;99.90
23873;DHT22;42884;50.718;4.630;2023-02-28T05:37:05;-1.60;99.90
23873;DHT22;42884;50.718;4.630;2023-02-28T05:39:31;-1.60;99.90
23873;DHT22;42884;50.718;4.630;2023-02-28T05:41:56;-1.60;99.90
23873;DHT22;42884;50.718;4.630;2023-02-28T05:44:22;-1.60;99.90
23873;DHT22;42884;50.718;4.630;2023-02-28T05:46:47;-1.60;99.90
23873;DHT22;42884;50.718;4.630;2023-02-28T05:49:13;-1.70;99.90
23873;DHT22;42884;50.718;4.630;2023-02-28T05:51:39;-1.70;99.90
23873;DHT22;42884;50.718;4.630;2023-02-28T05:54:05;-1.70;99.90
23873;DHT22;42884;50.718;4.630;2023-02-28T05:56:31;-1.80;99.90
23873;DHT22;42884;50.718;4.630;2023-02-28T05:58:59;-1.80;99.90
23873;DHT22;42884;50.718;4.630;2023-02-28T06:01:38;-1.80;99.90
23873;DHT22;42884;50.718;4.630;2023-02-28T06:04:04;-1.80;99.90
23873;DHT22;42884;50.718;4.630;2023-02-28T06:06:30;-1.80;99.90
23873;DHT22;42884;50.718;4.630;2023-02-28T06:08:56;-1.80;99.90
23873;DHT22;42884;50.718;4.630;2023-02-28T06:11:22;-1.80;99.90
23873;DHT22;42884;50.718;4.630;2023-02-28T06:13:55;-1.80;99.90
23873;DHT22;42884;50.718;4.630;2023-02-28T06:16:21;-1.90;99.90
23873;DHT22;42884;50.718;4.630;2023-02-28T06:18:47;-1.90;99.90
23873;DHT22;42884;50.718;4.630;2023-02-28T06:21:13;-1.90;99.90
23873;DHT22;42884;50.718;4.630;2023-02-28T06:23:38;-1.90;99.90
23873;DHT22;42884;50.718;4.630;2023-02-28T06:26:04;-2.00;99.90
23873;DHT22;42884;50.718;4.630;2023-02-28T06:28:30;-1.90;99.90
23873;DHT22;42884;50.718;4.630;2023-02-28T06:30:56;-1.90;99.90
23873;DHT22;42884;50.718;4.630;2023-02-28T06:33:22;-1.90;99.90
23873;DHT22;42884;50.718;4.630;2023-02-28T06:35:50;-2.00;99.90
23873;DHT22;42884;50.718;4.630;2023-02-28T06:38:16;-2.00;99.90
23873;DHT22;42884;50.718;4.630;2023-02-28T06:40:43;-2.10;99.90
23873;DHT22;42884;50.718;4.630;2023-02-28T06:43:09;-2.00;99.90
23873;DHT22;42884;50.718;4.630;2023-02-28T06:45:42;-2.10;99.90
23873;DHT22;42884;50.718;4.630;2023-02-28T06:48:07;-2.10;99.90
23873;DHT22;42884;50.718;4.630;2023-02-28T06:50:33;-2.10;99.90
23873;DHT22;42884;50.718;4.630;2023-02-28T06:52:59;-2.00;99.90
23873;DHT22;42884;50.718;4.630;2023-02-28T06:55:25;-2.00;99.90
23873;DHT22;42884;50.718;4.630;2023-02-28T06:57:50;-2.00;99.90
23873;DHT22;42884;50.718;4.630;2023-02-28T07:00:16;-2.00;99.90
23873;DHT22;42884;50.718;4.630;2023-02-28T07:02:41;-1.90;99.90
23873;DHT22;42884;50.718;4.630;2023-02-28T07:05:07;-1.90;99.90
23873;DHT22;42884;50.718;4.630;2023-02-28T07:07:33;-1.90;99.90
23873;DHT22;42884;50.718;4.630;2023-02-28T07:09:59;-1.90;99.90
23873;DHT22;42884;50.718;4.630;2023-02-28T07:12:25;-1.90;99.90
23873;DHT22;42884;50.718;4.630;2023-02-28T07:14:50;-1.80;99.90
23873;DHT22;42884;50.718;4.630;2023-02-28T07:17:16;-1.80;99.90
23873;DHT22;42884;50.718;4.630;2023-02-28T07:19:41;-1.70;99.90
23873;DHT22;42884;50.718;4.630;2023-02-28T07:22:07;-1.70;99.90
23873;DHT22;42884;50.718;4.630;2023-02-28T07:24:33;-1.70;99.90
23873;DHT22;42884;50.718;4.630;2023-02-28T07:26:58;-1.70;99.90
23873;DHT22;42884;50.718;4.630;2023-02-28T07:29:25;-1.60;99.90
23873;DHT22;42884;50.718;4.630;2023-02-28T07:31:50;-1.60;99.90
23873;DHT22;42884;50.718;4.630;2023-02-28T07:34:18;-1.50;99.90
23873;DHT22;42884;50.718;4.630;2023-02-28T07:36:44;-1.50;99.90
23873;DHT22;42884;50.718;4.630;2023-02-28T07:39:10;-1.40;99.90
23873;DHT22;42884;50.718;4.630;2023-02-28T07:41:35;-1.40;99.90
23873;DHT22;42884;50.718;4.630;2023-02-28T07:44:11;-1.30;99.90
23873;DHT22;42884;50.718;4.630;2023-02-28T07:46:36;-1.20;99.90
23873;DHT22;42884;50.718;4.630;2023-02-28T07:49:02;-1.10;99.90
23873;DHT22;42884;50.718;4.630;2023-02-28T07:51:28;-1.10;99.90
23873;DHT22;42884;50.718;4.630;2023-02-28T07:53:54;-1.00;99.90
23873;DHT22;42884;50.718;4.630;2023-02-28T07:56:20;-0.90;99.90
23873;DHT22;42884;50.718;4.630;2023-02-28T07:58:45;-0.70;99.90
23873;DHT22;42884;50.718;4.630;2023-02-28T08:01:11;-0.70;99.90
23873;DHT22;42884;50.718;4.630;2023-02-28T08:03:37;-0.60;99.90
23873;DHT22;42884;50.718;4.630;2023-02-28T08:06:03;-0.40;99.90
23873;DHT22;42884;50.718;4.630;2023-02-28T08:08:29;-0.20;99.90
23873;DHT22;42884;50.718;4.630;2023-02-28T08:11:00;-0.20;99.90
23873;DHT22;42884;50.718;4.630;2023-02-28T08:13:26;-0.10;99.90
23873;DHT22;42884;50.718;4.630;2023-02-28T08:15:53;0.10;99.90
23873;DHT22;42884;50.718;4.630;2023-02-28T08:18:19;0.20;99.90
23873;DHT22;42884;50.718;4.630;2023-02-28T08:20:44;0.30;99.90
23873;DHT22;42884;50.718;4.630;2023-02-28T08:23:10;0.40;99.90
23873;DHT22;42884;50.718;4.630;2023-02-28T08:25:36;0.60;99.90
23873;DHT22;42884;50.718;4.630;2023-02-28T08:28:01;0.70;99.90
23873;DHT22;42884;50.718;4.630;2023-02-28T08:30:27;0.80;99.90
23873;DHT22;42884;50.718;4.630;2023-02-28T08:32:53;0.90;99.90
23873;DHT22;42884;50.718;4.630;2023-02-28T08:35:19;1.00;99.90
23873;DHT22;42884;50.718;4.630;2023-02-28T08:37:47;1.20;99.90
23873;DHT22;42884;50.718;4.630;2023-02-28T08:40:12;1.40;99.90
23873;DHT22;42884;50.718;4.630;2023-02-28T08:42:46;1.50;99.90
23873;DHT22;42884;50.718;4.630;2023-02-28T08:45:12;1.70;99.90
23873;DHT22;42884;50.718;4.630;2023-02-28T08:47:38;1.70;99.90
23873;DHT22;42884;50.718;4.630;2023-02-28T08:50:04;1.90;99.90
23873;DHT22;42884;50.718;4.630;2023-02-28T08:52:30;1.90;99.90
23873;DHT22;42884;50.718;4.630;2023-02-28T08:54:55;2.10;99.90
23873;DHT22;42884;50.718;4.630;2023-02-28T08:57:21;2.20;99.90
23873;DHT22;42884;50.718;4.630;2023-02-28T08:59:46;2.30;99.90
23873;DHT22;42884;50.718;4.630;2023-02-28T09:02:13;2.50;99.90
23873;DHT22;42884;50.718;4.630;2023-02-28T09:04:38;2.50;99.90
23873;DHT22;42884;50.718;4.630;2023-02-28T09:07:04;2.60;99.90
23873;DHT22;42884;50.718;4.630;2023-02-28T09:09:29;2.70;99.90
23873;DHT22;42884;50.718;4.630;2023-02-28T09:11:55;2.80;99.90
23873;DHT22;42884;50.718;4.630;2023-02-28T09:14:21;3.00;99.90
23873;DHT22;42884;50.718;4.630;2023-02-28T09:16:47;3.40;99.90
23873;DHT22;42884;50.718;4.630;2023-02-28T09:19:12;3.70;99.90
23873;DHT22;42884;50.718;4.630;2023-02-28T09:21:38;4.30;99.90
23873;DHT22;42884;50.718;4.630;2023-02-28T09:24:04;5.30;99.90
23873;DHT22;42884;50.718;4.630;2023-02-28T09:26:30;5.90;99.90
23873;DHT22;42884;50.718;4.630;2023-02-28T09:28:55;6.40;99.90
23873;DHT22;42884;50.718;4.630;2023-02-28T09:31:23;7.50;99.90
23873;DHT22;42884;50.718;4.630;2023-02-28T09:33:49;8.70;99.90
23873;DHT22;42884;50.718;4.630;2023-02-28T09:36:15;10.20;99.90
23873;DHT22;42884;50.718;4.630;2023-02-28T09:38:41;11.30;99.90
23873;DHT22;42884;50.718;4.630;2023-02-28T09:41:15;11.90;99.90
23873;DHT22;42884;50.718;4.630;2023-02-28T09:43:43;12.70;97.80
23873;DHT22;42884;50.718;4.630;2023-02-28T09:48:39;14.40;93.80
23873;DHT22;42884;50.718;4.630;2023-02-28T09:53:48;15.20;91.50
23873;DHT22;42884;50.718;4.630;2023-02-28T10:01:35;16.30;88.10
23873;DHT22;42884;50.718;4.630;2023-02-28T10:04:08;17.10;86.30
23873;DHT22;42884;50.718;4.630;2023-02-28T10:06:48;17.50;79.90
23873;DHT22;42884;50.718;4.630;2023-02-28T10:09:22;17.70;79.30
23873;DHT22;42884;50.718;4.630;2023-02-28T10:11:50;17.50;79.30
23873;DHT22;42884;50.718;4.630;2023-02-28T10:14:23;16.10;76.10
23873;DHT22;42884;50.718;4.630;2023-02-28T10:17:04;16.30;78.90
23873;DHT22;42884;50.718;4.630;2023-02-28T10:22:11;16.40;73.60
23873;DHT22;42884;50.718;4.630;2023-02-28T10:24:41;15.90;74.80
23873;DHT22;42884;50.718;4.630;2023-02-28T10:27:14;14.70;75.60
23873;DHT22;42884;50.718;4.630;2023-02-28T10:29:42;14.80;77.50
23873;DHT22;42884;50.718;4.630;2023-02-28T10:32:08;15.30;78.70
23873;DHT22;42884;50.718;4.630;2023-02-28T10:34:35;14.80;75.10
23873;DHT22;42884;50.718;4.630;2023-02-28T10:37:01;13.60;76.80
23873;DHT22;42884;50.718;4.630;2023-02-28T10:42:04;14.50;78.40
23873;DHT22;42884;50.718;4.630;2023-02-28T10:44:30;14.90;75.80
23873;DHT22;42884;50.718;4.630;2023-02-28T10:46:55;15.50;74.20
23873;DHT22;42884;50.718;4.630;2023-02-28T10:51:47;16.60;75.10
23873;DHT22;42884;50.718;4.630;2023-02-28T10:54:15;16.90;72.80
23873;DHT22;42884;50.718;4.630;2023-02-28T10:56:41;16.80;73.10
23873;DHT22;42884;50.718;4.630;2023-02-28T11:04:01;17.80;73.70
23873;DHT22;42884;50.718;4.630;2023-02-28T11:06:33;16.30;70.50
23873;DHT22;42884;50.718;4.630;2023-02-28T11:09:06;15.20;74.00
23873;DHT22;42884;50.718;4.630;2023-02-28T11:11:42;14.10;73.50
23873;DHT22;42884;50.718;4.630;2023-02-28T11:14:16;13.00;74.60
23873;DHT22;42884;50.718;4.630;2023-02-28T11:16:43;12.90;72.50
23873;DHT22;42884;50.718;4.630;2023-02-28T11:19:15;12.90;76.10
23873;DHT22;42884;50.718;4.630;2023-02-28T11:21:45;14.00;77.90
23873;DHT22;42884;50.718;4.630;2023-02-28T11:24:21;13.80;70.80
23873;DHT22;42884;50.718;4.630;2023-02-28T11:26:48;13.00;77.70
23873;DHT22;42884;50.718;4.630;2023-02-28T11:29:18;13.10;72.70
23873;DHT22;42884;50.718;4.630;2023-02-28T11:32:07;12.10;75.10
23873;DHT22;42884;50.718;4.630;2023-02-28T11:34:31;11.80;77.80
23873;DHT22;42884;50.718;4.630;2023-02-28T11:36:57;11.80;73.80
23873;DHT22;42884;50.718;4.630;2023-02-28T11:39:24;10.80;76.30
23873;DHT22;42884;50.718;4.630;2023-02-28T11:44:24;10.30;77.90
23873;DHT22;42884;50.718;4.630;2023-02-28T11:49:37;9.70;77.60
23873;DHT22;42884;50.718;4.630;2023-02-28T12:12:44;9.30;80.10
23873;DHT22;42884;50.718;4.630;2023-02-28T12:23:25;11.20;77.30
23873;DHT22;42884;50.718;4.630;2023-02-28T12:28:44;12.00;75.90
23873;DHT22;42884;50.718;4.630;2023-02-28T12:31:30;11.50;76.40
23873;DHT22;42884;50.718;4.630;2023-02-28T12:33:59;11.20;76.20
23873;DHT22;42884;50.718;4.630;2023-02-28T12:36:25;11.40;78.10
23873;DHT22;42884;50.718;4.630;2023-02-28T12:38:59;11.80;76.40
23873;DHT22;42884;50.718;4.630;2023-02-28T12:41:27;11.80;76.30
23873;DHT22;42884;50.718;4.630;2023-02-28T12:43:59;12.80;75.50
23873;DHT22;42884;50.718;4.630;2023-02-28T12:46:29;12.60;73.50
23873;DHT22;42884;50.718;4.630;2023-02-28T12:48:56;12.60;77.40
23873;DHT22;42884;50.718;4.630;2023-02-28T12:51:23;12.80;72.90
23873;DHT22;42884;50.718;4.630;2023-02-28T12:59:04;12.40;73.10
23873;DHT22;42884;50.718;4.630;2023-02-28T13:06:45;11.50;72.80
23873;DHT22;42884;50.718;4.630;2023-02-28T13:09:15;11.60;74.70
23873;DHT22;42884;50.718;4.630;2023-02-28T13:11:43;12.10;74.90
23873;DHT22;42884;50.718;4.630;2023-02-28T13:14:19;12.20;73.10
23873;DHT22;42884;50.718;4.630;2023-02-28T13:19:15;13.30;76.80
23873;DHT22;42884;50.718;4.630;2023-02-28T13:21:43;13.50;74.40
23873;DHT22;42884;50.718;4.630;2023-02-28T13:24:09;13.60;71.50
23873;DHT22;42884;50.718;4.630;2023-02-28T13:29:21;13.10;70.40
23873;DHT22;42884;50.718;4.630;2023-02-28T13:34:33;13.30;69.10
23873;DHT22;42884;50.718;4.630;2023-02-28T13:42:32;14.40;69.60
23873;DHT22;42884;50.718;4.630;2023-02-28T13:47:41;14.90;70.00
23873;DHT22;42884;50.718;4.630;2023-02-28T13:58:18;16.10;65.40
23873;DHT22;42884;50.718;4.630;2023-02-28T14:11:25;15.00;70.10
23873;DHT22;42884;50.718;4.630;2023-02-28T14:13:51;15.00;68.10
23873;DHT22;42884;50.718;4.630;2023-02-28T14:16:17;14.80;66.00
23873;DHT22;42884;50.718;4.630;2023-02-28T14:18:58;14.60;67.00
23873;DHT22;42884;50.718;4.630;2023-02-28T14:21:35;13.80;65.40
23873;DHT22;42884;50.718;4.630;2023-02-28T14:29:14;14.30;67.00
23873;DHT22;42884;50.718;4.630;2023-02-28T14:31:49;14.80;67.10
23873;DHT22;42884;50.718;4.630;2023-02-28T14:37:04;14.20;66.80
23873;DHT22;42884;50.718;4.630;2023-02-28T14:39:30;13.70;66.10
23873;DHT22;42884;50.718;4.630;2023-02-28T14:41:56;12.80;67.80
23873;DHT22;42884;50.718;4.630;2023-02-28T14:44:25;11.90;69.60
23873;DHT22;42884;50.718;4.630;2023-02-28T14:46:54;11.60;71.30
23873;DHT22;42884;50.718;4.630;2023-02-28T14:49:30;11.00;70.20
23873;DHT22;42884;50.718;4.630;2023-02-28T14:54:40;10.30;73.20
23873;DHT22;42884;50.718;4.630;2023-02-28T14:57:12;9.70;74.00
23873;DHT22;42884;50.718;4.630;2023-02-28T14:59:45;9.40;76.90
23873;DHT22;42884;50.718;4.630;2023-02-28T15:02:15;8.90;76.40
23873;DHT22;42884;50.718;4.630;2023-02-28T15:04:41;8.50;79.30
23873;DHT22;42884;50.718;4.630;2023-02-28T15:07:12;8.20;79.10
23873;DHT22;42884;50.718;4.630;2023-02-28T15:09:38;8.00;81.30
23873;DHT22;42884;50.718;4.630;2023-02-28T15:12:04;7.80;82.10
23873;DHT22;42884;50.718;4.630;2023-02-28T15:14:30;7.90;81.20
23873;DHT22;42884;50.718;4.630;2023-02-28T15:17:00;8.20;82.20
23873;DHT22;42884;50.718;4.630;2023-02-28T15:19:31;7.80;82.20
23873;DHT22;42884;50.718;4.630;2023-02-28T15:22:00;7.60;81.20
23873;DHT22;42884;50.718;4.630;2023-02-28T15:24:31;7.50;82.40
23873;DHT22;42884;50.718;4.630;2023-02-28T15:27:03;7.40;82.40
23873;DHT22;42884;50.718;4.630;2023-02-28T15:29:29;7.50;83.30
23873;DHT22;42884;50.718;4.630;2023-02-28T15:32:03;7.40;82.20
23873;DHT22;42884;50.718;4.630;2023-02-28T15:34:36;7.20;81.60
23873;DHT22;42884;50.718;4.630;2023-02-28T15:37:06;7.10;84.40
23873;DHT22;42884;50.718;4.630;2023-02-28T15:39:32;7.20;83.50
23873;DHT22;42884;50.718;4.630;2023-02-28T15:42:10;6.90;84.40
23873;DHT22;42884;50.718;4.630;2023-02-28T15:44:36;6.90;83.10
23873;DHT22;42884;50.718;4.630;2023-02-28T15:47:03;6.70;83.80
23873;DHT22;42884;50.718;4.630;2023-02-28T15:49:29;6.50;85.10
23873;DHT22;42884;50.718;4.630;2023-02-28T15:51:58;6.50;84.90
23873;DHT22;42884;50.718;4.630;2023-02-28T15:54:27;6.30;85.20
23873;DHT22;42884;50.718;4.630;2023-02-28T15:56:53;6.30;86.00
23873;DHT22;42884;50.718;4.630;2023-02-28T15:59:27;6.40;84.70
23873;DHT22;42884;50.718;4.630;2023-02-28T16:02:04;6.50;86.50
23873;DHT22;42884;50.718;4.630;2023-02-28T16:04:37;6.40;86.20
23873;DHT22;42884;50.718;4.630;2023-02-28T16:07:04;6.40;86.20
23873;DHT22;42884;50.718;4.630;2023-02-28T16:09:29;6.50;86.80
23873;DHT22;42884;50.718;4.630;2023-02-28T16:11:58;6.40;86.90
23873;DHT22;42884;50.718;4.630;2023-02-28T16:14:25;6.50;86.30
23873;DHT22;42884;50.718;4.630;2023-02-28T16:17:35;6.40;86.80
23873;DHT22;42884;50.718;4.630;2023-02-28T16:19:41;6.20;86.40
23873;DHT22;42884;50.718;4.630;2023-02-28T16:22:07;6.00;88.60
23873;DHT22;42884;50.718;4.630;2023-02-28T16:24:33;5.90;89.40
23873;DHT22;42884;50.718;4.630;2023-02-28T16:26:59;6.10;87.80
23873;DHT22;42884;50.718;4.630;2023-02-28T16:29:32;6.10;88.50
23873;DHT22;42884;50.718;4.630;2023-02-28T16:31:59;6.00;89.20
23873;DHT22;42884;50.718;4.630;2023-02-28T16:34:26;6.10;89.40
23873;DHT22;42884;50.718;4.630;2023-02-28T16:36:52;6.00;88.60
23873;DHT22;42884;50.718;4.630;2023-02-28T16:39:18;6.00;88.10
23873;DHT22;42884;50.718;4.630;2023-02-28T16:41:45;6.20;88.60
23873;DHT22;42884;50.718;4.630;2023-02-28T16:44:13;6.00;90.10
23873;DHT22;42884;50.718;4.630;2023-02-28T16:46:43;6.00;90.60
23873;DHT22;42884;50.718;4.630;2023-02-28T16:49:12;6.00;90.90
23873;DHT22;42884;50.718;4.630;2023-02-28T16:51:38;6.00;91.20
23873;DHT22;42884;50.718;4.630;2023-02-28T16:54:04;6.10;91.40
23873;DHT22;42884;50.718;4.630;2023-02-28T16:56:30;6.00;90.80
23873;DHT22;42884;50.718;4.630;2023-02-28T16:58:57;5.90;90.80
23873;DHT22;42884;50.718;4.630;2023-02-28T17:01:24;5.90;91.90
23873;DHT22;42884;50.718;4.630;2023-02-28T17:03:52;5.80;91.80
23873;DHT22;42884;50.718;4.630;2023-02-28T17:08:43;5.70;92.20
23873;DHT22;42884;50.718;4.630;2023-02-28T17:11:09;5.70;91.90
23873;DHT22;42884;50.718;4.630;2023-02-28T17:13:35;5.70;91.70
23873;DHT22;42884;50.718;4.630;2023-02-28T17:16:00;5.70;92.10
23873;DHT22;42884;50.718;4.630;2023-02-28T17:18:26;5.40;92.70
23873;DHT22;42884;50.718;4.630;2023-02-28T17:20:54;5.40;92.80
23873;DHT22;42884;50.718;4.630;2023-02-28T17:23:19;5.30;92.90
23873;DHT22;42884;50.718;4.630;2023-02-28T17:25:45;5.20;93.30
23873;DHT22;42884;50.718;4.630;2023-02-28T17:28:19;5.20;93.40
23873;DHT22;42884;50.718;4.630;2023-02-28T17:30:45;5.10;92.70
23873;DHT22;42884;50.718;4.630;2023-02-28T17:33:12;5.00;93.00
23873;DHT22;42884;50.718;4.630;2023-02-28T17:35:38;4.90;93.90
23873;DHT22;42884;50.718;4.630;2023-02-28T17:38:04;4.90;94.00
23873;DHT22;42884;50.718;4.630;2023-02-28T17:40:29;4.90;94.30
23873;DHT22;42884;50.718;4.630;2023-02-28T17:42:55;4.80;94.40
23873;DHT22;42884;50.718;4.630;2023-02-28T17:45:22;4.80;94.80
23873;DHT22;42884;50.718;4.630;2023-02-28T17:47:48;4.70;95.00
23873;DHT22;42884;50.718;4.630;2023-02-28T17:50:21;4.70;95.20
23873;DHT22;42884;50.718;4.630;2023-02-28T17:52:47;4.60;95.00
23873;DHT22;42884;50.718;4.630;2023-02-28T17:55:13;4.50;95.00
23873;DHT22;42884;50.718;4.630;2023-02-28T17:57:39;4.00;95.30
23873;DHT22;42884;50.718;4.630;2023-02-28T18:00:05;4.40;95.50
23873;DHT22;42884;50.718;4.630;2023-02-28T18:02:33;4.30;95.70
23873;DHT22;42884;50.718;4.630;2023-02-28T18:04:59;4.30;96.00
23873;DHT22;42884;50.718;4.630;2023-02-28T18:07:25;4.20;96.30
23873;DHT22;42884;50.718;4.630;2023-02-28T18:09:50;4.10;96.70